XABAE MMLP-MMGL
Flight info
| Callsign | XABAE |
|---|---|
| Flight time | 1h 28m |
| Altitude | 31000 |
| Route | LAP J1 SJD UJ14 KASUP |
| Aircraft | B463/M-SDFGIRWY/LB1 |
Departure
| Time | 2026-05-05 15:48 |
|---|---|
| Airport | Manuel Márquez de León International Airport (MMLP) |
Arrival
| Time | 2026-05-05 17:16 |
|---|---|
| Airport | Guadalajara International Airport (MMGL) |
| Time | Latitude | Longitude | Altitude | Speed | Heading |
|---|---|---|---|---|---|
| 2026-05-05 15:06 | 24.07768 | -110.36616 | 74 ft | 0 kts | 277° |
| 2026-05-05 15:23 | 24.07767 | -110.36616 | 74 ft | 0 kts | 277° |
| 2026-05-05 15:23 | 24.07768 | -110.36616 | 74 ft | 0 kts | 277° |
| 2026-05-05 15:24 | 24.07767 | -110.36616 | 74 ft | 0 kts | 277° |
| 2026-05-05 15:38 | 24.07768 | -110.36616 | 74 ft | 0 kts | 277° |
| 2026-05-05 15:43 | 24.07768 | -110.36619 | 74 ft | 1 kts | 298° |
| 2026-05-05 15:43 | 24.07783 | -110.36608 | 74 ft | 5 kts | 93° |
| 2026-05-05 15:44 | 24.07778 | -110.36561 | 74 ft | 7 kts | 97° |
| 2026-05-05 15:44 | 24.07771 | -110.36500 | 74 ft | 9 kts | 97° |
| 2026-05-05 15:44 | 24.07763 | -110.36425 | 74 ft | 10 kts | 97° |
| 2026-05-05 15:44 | 24.07753 | -110.36334 | 74 ft | 12 kts | 97° |
| 2026-05-05 15:45 | 24.07744 | -110.36260 | 74 ft | 6 kts | 98° |
| 2026-05-05 15:45 | 24.07751 | -110.36194 | 74 ft | 14 kts | 48° |
| 2026-05-05 15:45 | 24.07843 | -110.36170 | 74 ft | 15 kts | 7° |
| 2026-05-05 15:45 | 24.07958 | -110.36153 | 74 ft | 18 kts | 8° |
| 2026-05-05 15:46 | 24.08100 | -110.36131 | 74 ft | 22 kts | 9° |
| 2026-05-05 15:46 | 24.08227 | -110.36124 | 74 ft | 12 kts | 344° |
| 2026-05-05 15:46 | 24.08290 | -110.36148 | 74 ft | 7 kts | 345° |
| 2026-05-05 15:46 | 24.08349 | -110.36147 | 74 ft | 9 kts | 8° |
| 2026-05-05 15:47 | 24.08381 | -110.36100 | 74 ft | 4 kts | 113° |
| 2026-05-05 15:47 | 24.08369 | -110.36095 | 74 ft | 0 kts | 190° |
| 2026-05-05 15:47 | 24.08161 | -110.36126 | 74 ft | 63 kts | 187° |
| 2026-05-05 15:47 | 24.07533 | -110.36217 | 75 ft | 117 kts | 187° |
| 2026-05-05 15:48 | 24.06580 | -110.36354 | 174 ft | 148 kts | 186° |
| 2026-05-05 15:48 | 24.05578 | -110.36505 | 679 ft | 148 kts | 187° |
| 2026-05-05 15:48 | 24.04558 | -110.36676 | 1144 ft | 152 kts | 187° |
| 2026-05-05 15:48 | 24.03504 | -110.36872 | 1628 ft | 156 kts | 188° |
| 2026-05-05 15:49 | 24.02438 | -110.37073 | 2096 ft | 158 kts | 189° |
| 2026-05-05 15:49 | 24.01353 | -110.37254 | 2557 ft | 161 kts | 188° |
| 2026-05-05 15:49 | 24.00221 | -110.37433 | 2883 ft | 172 kts | 188° |
| 2026-05-05 15:49 | 23.98976 | -110.37624 | 3149 ft | 188 kts | 188° |
| 2026-05-05 15:50 | 23.97613 | -110.37828 | 3322 ft | 211 kts | 188° |
| 2026-05-05 15:50 | 23.96083 | -110.38052 | 3608 ft | 232 kts | 188° |
| 2026-05-05 15:50 | 23.94418 | -110.38296 | 3969 ft | 249 kts | 188° |
| 2026-05-05 15:50 | 23.92646 | -110.38553 | 4325 ft | 271 kts | 188° |
| 2026-05-05 15:51 | 23.90735 | -110.38826 | 5043 ft | 276 kts | 188° |
| 2026-05-05 15:51 | 23.88874 | -110.39088 | 5901 ft | 274 kts | 188° |
| 2026-05-05 15:51 | 23.86965 | -110.38993 | 6558 ft | 279 kts | 168° |
| 2026-05-05 15:51 | 23.85181 | -110.38152 | 7124 ft | 286 kts | 147° |
| 2026-05-05 15:52 | 23.83751 | -110.36660 | 7690 ft | 292 kts | 128° |
| 2026-05-05 15:52 | 23.82563 | -110.34826 | 8256 ft | 295 kts | 128° |
| 2026-05-05 15:52 | 23.81360 | -110.33020 | 8806 ft | 298 kts | 128° |
| 2026-05-05 15:52 | 23.80142 | -110.31187 | 9333 ft | 301 kts | 128° |
| 2026-05-05 15:53 | 23.78910 | -110.29341 | 9829 ft | 305 kts | 129° |
| 2026-05-05 15:53 | 23.77652 | -110.27465 | 10328 ft | 308 kts | 129° |
| 2026-05-05 15:53 | 23.76376 | -110.25593 | 10806 ft | 311 kts | 130° |
| 2026-05-05 15:53 | 23.75076 | -110.23679 | 11273 ft | 315 kts | 130° |
| 2026-05-05 15:54 | 23.73774 | -110.21763 | 11730 ft | 318 kts | 130° |
| 2026-05-05 15:54 | 23.72459 | -110.19828 | 12167 ft | 321 kts | 130° |
| 2026-05-05 15:54 | 23.71128 | -110.17868 | 12656 ft | 322 kts | 130° |
| 2026-05-05 15:54 | 23.69794 | -110.15906 | 13115 ft | 324 kts | 131° |
| 2026-05-05 15:55 | 23.68440 | -110.13915 | 13576 ft | 325 kts | 131° |
| 2026-05-05 15:55 | 23.67102 | -110.11948 | 14020 ft | 326 kts | 131° |
| 2026-05-05 15:55 | 23.65750 | -110.09962 | 14452 ft | 328 kts | 131° |
| 2026-05-05 15:55 | 23.64390 | -110.07966 | 14881 ft | 329 kts | 131° |
| 2026-05-05 15:56 | 23.63026 | -110.05965 | 15288 ft | 331 kts | 131° |
| 2026-05-05 15:56 | 23.61486 | -110.04156 | 15677 ft | 324 kts | 148° |
| 2026-05-05 15:56 | 23.59594 | -110.02818 | 16075 ft | 321 kts | 154° |
| 2026-05-05 15:56 | 23.57698 | -110.01528 | 16466 ft | 323 kts | 153° |
| 2026-05-05 15:57 | 23.55809 | -110.00234 | 16842 ft | 324 kts | 153° |
| 2026-05-05 15:57 | 23.53902 | -109.98933 | 17227 ft | 325 kts | 153° |
| 2026-05-05 15:57 | 23.51983 | -109.97620 | 17608 ft | 326 kts | 153° |
| 2026-05-05 15:57 | 23.50083 | -109.96321 | 17948 ft | 327 kts | 153° |
| 2026-05-05 15:58 | 23.48144 | -109.94996 | 18301 ft | 328 kts | 153° |
| 2026-05-05 15:58 | 23.46203 | -109.93669 | 18626 ft | 330 kts | 153° |
| 2026-05-05 15:58 | 23.44264 | -109.92345 | 18922 ft | 332 kts | 153° |
| 2026-05-05 15:58 | 23.42311 | -109.91012 | 19228 ft | 334 kts | 154° |
| 2026-05-05 15:59 | 23.40336 | -109.89664 | 19538 ft | 335 kts | 153° |
| 2026-05-05 15:59 | 23.38394 | -109.88337 | 19896 ft | 334 kts | 154° |
| 2026-05-05 15:59 | 23.36428 | -109.86996 | 20164 ft | 335 kts | 154° |
| 2026-05-05 15:59 | 23.34434 | -109.85638 | 20406 ft | 337 kts | 154° |
| 2026-05-05 16:00 | 23.32469 | -109.84300 | 20669 ft | 338 kts | 154° |
| 2026-05-05 16:00 | 23.30464 | -109.82933 | 20950 ft | 338 kts | 154° |
| 2026-05-05 16:00 | 23.28485 | -109.81584 | 21179 ft | 340 kts | 154° |
| 2026-05-05 16:00 | 23.26470 | -109.80212 | 21436 ft | 341 kts | 154° |
| 2026-05-05 16:01 | 23.24466 | -109.78848 | 21666 ft | 342 kts | 154° |
| 2026-05-05 16:01 | 23.22454 | -109.77481 | 21885 ft | 343 kts | 154° |
| 2026-05-05 16:01 | 23.20425 | -109.76101 | 22140 ft | 343 kts | 154° |
| 2026-05-05 16:01 | 23.18398 | -109.74722 | 22356 ft | 345 kts | 154° |
| 2026-05-05 16:02 | 23.16383 | -109.73354 | 22555 ft | 346 kts | 153° |
| 2026-05-05 16:02 | 23.14480 | -109.71687 | 22755 ft | 357 kts | 138° |
| 2026-05-05 16:02 | 23.13033 | -109.69469 | 22944 ft | 366 kts | 125° |
| 2026-05-05 16:02 | 23.11787 | -109.67052 | 23168 ft | 367 kts | 125° |
| 2026-05-05 16:03 | 23.10533 | -109.64647 | 23345 ft | 368 kts | 125° |
| 2026-05-05 16:03 | 23.09275 | -109.62241 | 23535 ft | 369 kts | 125° |
| 2026-05-05 16:03 | 23.08008 | -109.59808 | 23714 ft | 370 kts | 125° |
| 2026-05-05 16:03 | 23.06735 | -109.57364 | 23918 ft | 370 kts | 125° |
| 2026-05-05 16:04 | 23.05479 | -109.54951 | 24139 ft | 369 kts | 125° |
| 2026-05-05 16:04 | 23.04219 | -109.52534 | 24363 ft | 368 kts | 126° |
| 2026-05-05 16:04 | 23.02960 | -109.50118 | 24627 ft | 366 kts | 126° |
| 2026-05-05 16:04 | 23.01710 | -109.47722 | 24897 ft | 363 kts | 126° |
| 2026-05-05 16:05 | 23.00473 | -109.45351 | 25165 ft | 360 kts | 126° |
| 2026-05-05 16:05 | 22.99252 | -109.43016 | 25431 ft | 357 kts | 126° |
| 2026-05-05 16:05 | 22.98019 | -109.40657 | 25702 ft | 354 kts | 126° |
| 2026-05-05 16:05 | 22.96813 | -109.38354 | 25967 ft | 351 kts | 127° |
| 2026-05-05 16:06 | 22.95609 | -109.36055 | 26236 ft | 348 kts | 127° |
| 2026-05-05 16:06 | 22.94428 | -109.33807 | 26478 ft | 345 kts | 127° |
| 2026-05-05 16:06 | 22.93242 | -109.31568 | 26614 ft | 345 kts | 128° |
| 2026-05-05 16:06 | 22.92036 | -109.29296 | 26752 ft | 345 kts | 128° |
| 2026-05-05 16:07 | 22.90859 | -109.27065 | 26887 ft | 345 kts | 128° |
| 2026-05-05 16:07 | 22.89657 | -109.24793 | 27027 ft | 345 kts | 128° |
| 2026-05-05 16:07 | 22.88469 | -109.22546 | 27183 ft | 345 kts | 128° |
| 2026-05-05 16:07 | 22.87277 | -109.20295 | 27334 ft | 344 kts | 128° |
| 2026-05-05 16:08 | 22.86085 | -109.18044 | 27488 ft | 344 kts | 128° |
| 2026-05-05 16:08 | 22.84903 | -109.15812 | 27641 ft | 344 kts | 128° |
| 2026-05-05 16:08 | 22.83707 | -109.13554 | 27794 ft | 343 kts | 128° |
| 2026-05-05 16:08 | 22.82528 | -109.11332 | 27946 ft | 342 kts | 128° |
| 2026-05-05 16:09 | 22.81349 | -109.09109 | 28098 ft | 342 kts | 128° |
| 2026-05-05 16:09 | 22.80161 | -109.06870 | 28253 ft | 341 kts | 128° |
| 2026-05-05 16:09 | 22.78981 | -109.04647 | 28405 ft | 340 kts | 128° |
| 2026-05-05 16:09 | 22.77812 | -109.02447 | 28556 ft | 339 kts | 128° |
| 2026-05-05 16:10 | 22.76646 | -109.00251 | 28707 ft | 338 kts | 128° |
| 2026-05-05 16:10 | 22.75472 | -108.98044 | 28859 ft | 336 kts | 128° |
| 2026-05-05 16:10 | 22.74318 | -108.95873 | 29009 ft | 335 kts | 128° |
| 2026-05-05 16:11 | 22.71970 | -108.91473 | 29044 ft | 342 kts | 128° |
| 2026-05-05 16:12 | 22.67121 | -108.82393 | 29042 ft | 354 kts | 128° |
| 2026-05-05 16:13 | 22.60854 | -108.70671 | 29042 ft | 368 kts | 127° |
| 2026-05-05 16:13 | 22.58274 | -108.65851 | 29041 ft | 373 kts | 127° |
| 2026-05-05 16:14 | 22.53011 | -108.56031 | 29041 ft | 381 kts | 127° |
| 2026-05-05 16:15 | 22.47668 | -108.46077 | 29040 ft | 387 kts | 127° |
| 2026-05-05 16:16 | 22.42223 | -108.35951 | 29040 ft | 393 kts | 126° |
| 2026-05-05 16:17 | 22.38083 | -108.28266 | 29034 ft | 397 kts | 127° |
| 2026-05-05 16:18 | 22.33904 | -108.20515 | 29033 ft | 399 kts | 127° |
| 2026-05-05 16:19 | 22.29718 | -108.12766 | 29030 ft | 402 kts | 127° |
| 2026-05-05 16:19 | 22.25464 | -108.04906 | 29027 ft | 404 kts | 126° |
| 2026-05-05 16:20 | 22.19799 | -107.94457 | 29023 ft | 407 kts | 126° |
| 2026-05-05 16:22 | 22.12625 | -107.81252 | 29019 ft | 410 kts | 126° |
| 2026-05-05 16:23 | 22.06856 | -107.70660 | 29015 ft | 412 kts | 126° |
| 2026-05-05 16:23 | 22.02501 | -107.62677 | 29016 ft | 413 kts | 126° |
| 2026-05-05 16:24 | 21.99586 | -107.57340 | 29016 ft | 414 kts | 126° |
| 2026-05-05 16:25 | 21.95221 | -107.49358 | 29016 ft | 415 kts | 126° |
| 2026-05-05 16:25 | 21.90838 | -107.41356 | 29015 ft | 414 kts | 125° |
| 2026-05-05 16:26 | 21.84988 | -107.30698 | 29019 ft | 414 kts | 126° |
| 2026-05-05 16:27 | 21.82069 | -107.25387 | 29019 ft | 413 kts | 126° |
| 2026-05-05 16:27 | 21.79135 | -107.20055 | 29019 ft | 413 kts | 125° |
| 2026-05-05 16:28 | 21.76215 | -107.14757 | 29019 ft | 412 kts | 125° |
| 2026-05-05 16:28 | 21.73310 | -107.09500 | 29019 ft | 412 kts | 125° |
| 2026-05-05 16:29 | 21.70388 | -107.04201 | 29019 ft | 412 kts | 125° |
| 2026-05-05 16:29 | 21.67465 | -106.98906 | 29022 ft | 412 kts | 125° |
| 2026-05-05 16:30 | 21.64553 | -106.93636 | 29025 ft | 411 kts | 124° |
| 2026-05-05 16:30 | 21.61644 | -106.88380 | 29030 ft | 411 kts | 124° |
| 2026-05-05 16:31 | 21.58723 | -106.83106 | 29034 ft | 411 kts | 124° |
| 2026-05-05 16:31 | 21.55798 | -106.77830 | 29039 ft | 410 kts | 124° |
| 2026-05-05 16:32 | 21.52885 | -106.72581 | 29041 ft | 410 kts | 124° |
| 2026-05-05 16:32 | 21.49972 | -106.67339 | 29042 ft | 410 kts | 124° |
| 2026-05-05 16:33 | 21.47059 | -106.62102 | 29044 ft | 410 kts | 124° |
| 2026-05-05 16:33 | 21.44128 | -106.56837 | 29046 ft | 410 kts | 124° |
| 2026-05-05 16:34 | 21.41214 | -106.51608 | 29046 ft | 410 kts | 124° |
| 2026-05-05 16:34 | 21.38295 | -106.46386 | 29046 ft | 410 kts | 124° |
| 2026-05-05 16:35 | 21.35371 | -106.41144 | 29046 ft | 410 kts | 124° |
| 2026-05-05 16:35 | 21.32438 | -106.35894 | 29047 ft | 410 kts | 124° |
| 2026-05-05 16:36 | 21.29637 | -106.30580 | 29045 ft | 413 kts | 114° |
| 2026-05-05 16:36 | 21.28049 | -106.24642 | 29043 ft | 416 kts | 108° |
| 2026-05-05 16:37 | 21.26571 | -106.18686 | 29043 ft | 415 kts | 108° |
| 2026-05-05 16:37 | 21.25092 | -106.12735 | 29043 ft | 415 kts | 108° |
| 2026-05-05 16:38 | 21.23606 | -106.06764 | 29044 ft | 415 kts | 108° |
| 2026-05-05 16:38 | 21.22115 | -106.00784 | 29054 ft | 415 kts | 108° |
| 2026-05-05 16:39 | 21.20623 | -105.94814 | 29066 ft | 414 kts | 108° |
| 2026-05-05 16:39 | 21.19142 | -105.88895 | 29077 ft | 414 kts | 108° |
| 2026-05-05 16:40 | 21.17652 | -105.82948 | 29088 ft | 414 kts | 108° |
| 2026-05-05 16:40 | 21.16165 | -105.77023 | 29090 ft | 413 kts | 108° |
| 2026-05-05 16:41 | 21.14672 | -105.71085 | 29090 ft | 413 kts | 108° |
| 2026-05-05 16:41 | 21.13172 | -105.65131 | 29090 ft | 413 kts | 108° |
| 2026-05-05 16:42 | 21.11677 | -105.59203 | 29090 ft | 413 kts | 108° |
| 2026-05-05 16:42 | 21.10177 | -105.53265 | 29084 ft | 414 kts | 108° |
| 2026-05-05 16:43 | 21.08677 | -105.47340 | 29077 ft | 414 kts | 108° |
| 2026-05-05 16:43 | 21.07173 | -105.41405 | 29071 ft | 414 kts | 108° |
| 2026-05-05 16:44 | 21.05675 | -105.35503 | 29063 ft | 414 kts | 108° |
| 2026-05-05 16:44 | 21.04164 | -105.29562 | 29054 ft | 414 kts | 108° |
| 2026-05-05 16:45 | 21.02647 | -105.23607 | 29048 ft | 414 kts | 108° |
| 2026-05-05 16:45 | 21.01134 | -105.17677 | 29041 ft | 414 kts | 108° |
| 2026-05-05 16:46 | 20.99622 | -105.11758 | 29034 ft | 414 kts | 108° |
| 2026-05-05 16:46 | 20.98106 | -105.05833 | 29042 ft | 414 kts | 108° |
| 2026-05-05 16:47 | 20.96588 | -104.99912 | 29058 ft | 413 kts | 108° |
| 2026-05-05 16:47 | 20.95065 | -104.93977 | 29078 ft | 413 kts | 108° |
| 2026-05-05 16:48 | 20.93544 | -104.88063 | 29100 ft | 412 kts | 108° |
| 2026-05-05 16:48 | 20.92029 | -104.82177 | 29107 ft | 412 kts | 108° |
| 2026-05-05 16:49 | 20.90507 | -104.76276 | 29107 ft | 412 kts | 108° |
| 2026-05-05 16:49 | 20.88989 | -104.70397 | 29112 ft | 413 kts | 108° |
| 2026-05-05 16:50 | 20.87459 | -104.64485 | 29112 ft | 413 kts | 108° |
| 2026-05-05 16:50 | 20.85928 | -104.58575 | 29100 ft | 407 kts | 108° |
| 2026-05-05 16:51 | 20.85188 | -104.55717 | 28895 ft | 401 kts | 108° |
| 2026-05-05 16:51 | 20.84447 | -104.52861 | 28482 ft | 400 kts | 108° |
| 2026-05-05 16:51 | 20.83702 | -104.49992 | 27988 ft | 402 kts | 108° |
| 2026-05-05 16:51 | 20.82957 | -104.47131 | 27499 ft | 403 kts | 108° |
| 2026-05-05 16:52 | 20.82211 | -104.44262 | 27005 ft | 401 kts | 108° |
| 2026-05-05 16:52 | 20.81470 | -104.41415 | 26509 ft | 398 kts | 108° |
| 2026-05-05 16:52 | 20.80726 | -104.38557 | 26008 ft | 395 kts | 108° |
| 2026-05-05 16:52 | 20.80001 | -104.35772 | 25515 ft | 390 kts | 108° |
| 2026-05-05 16:53 | 20.79276 | -104.32993 | 25016 ft | 386 kts | 109° |
| 2026-05-05 16:53 | 20.78566 | -104.30271 | 24523 ft | 383 kts | 109° |
| 2026-05-05 16:53 | 20.77857 | -104.27553 | 24025 ft | 379 kts | 109° |
| 2026-05-05 16:53 | 20.77147 | -104.24836 | 23523 ft | 375 kts | 109° |
| 2026-05-05 16:54 | 20.76455 | -104.22189 | 23030 ft | 372 kts | 109° |
| 2026-05-05 16:54 | 20.75757 | -104.19522 | 22528 ft | 369 kts | 109° |
| 2026-05-05 16:54 | 20.75073 | -104.16911 | 22033 ft | 367 kts | 109° |
| 2026-05-05 16:54 | 20.74386 | -104.14290 | 21533 ft | 364 kts | 109° |
| 2026-05-05 16:55 | 20.73708 | -104.11706 | 21036 ft | 362 kts | 108° |
| 2026-05-05 16:55 | 20.73030 | -104.09121 | 20537 ft | 360 kts | 108° |
| 2026-05-05 16:55 | 20.72357 | -104.06562 | 20039 ft | 358 kts | 108° |
| 2026-05-05 16:55 | 20.71693 | -104.04036 | 19546 ft | 357 kts | 108° |
| 2026-05-05 16:56 | 20.71019 | -104.01475 | 19044 ft | 355 kts | 108° |
| 2026-05-05 16:56 | 20.70352 | -103.98941 | 18545 ft | 354 kts | 108° |
| 2026-05-05 16:56 | 20.69694 | -103.96443 | 18051 ft | 353 kts | 107° |
| 2026-05-05 16:56 | 20.69027 | -103.93913 | 17548 ft | 352 kts | 107° |
| 2026-05-05 16:57 | 20.68369 | -103.91418 | 17051 ft | 351 kts | 107° |
| 2026-05-05 16:57 | 20.67710 | -103.88922 | 16553 ft | 350 kts | 107° |
| 2026-05-05 16:57 | 20.67063 | -103.86469 | 16052 ft | 341 kts | 107° |
| 2026-05-05 16:57 | 20.66431 | -103.84076 | 15548 ft | 332 kts | 108° |
| 2026-05-05 16:58 | 20.65812 | -103.81731 | 15042 ft | 325 kts | 108° |
| 2026-05-05 16:58 | 20.65202 | -103.79427 | 14535 ft | 318 kts | 108° |
| 2026-05-05 16:58 | 20.64609 | -103.77182 | 14031 ft | 312 kts | 108° |
| 2026-05-05 16:58 | 20.64031 | -103.75002 | 13566 ft | 306 kts | 108° |
| 2026-05-05 16:59 | 20.63462 | -103.72854 | 13184 ft | 297 kts | 108° |
| 2026-05-05 16:59 | 20.62906 | -103.70754 | 12801 ft | 290 kts | 108° |
| 2026-05-05 16:59 | 20.62366 | -103.68720 | 12422 ft | 283 kts | 108° |
| 2026-05-05 16:59 | 20.61838 | -103.66732 | 12043 ft | 277 kts | 108° |
| 2026-05-05 17:00 | 20.61314 | -103.64757 | 11662 ft | 272 kts | 108° |
| 2026-05-05 17:00 | 20.60806 | -103.62846 | 11287 ft | 267 kts | 107° |
| 2026-05-05 17:00 | 20.60303 | -103.60973 | 10913 ft | 262 kts | 108° |
| 2026-05-05 17:00 | 20.59797 | -103.59124 | 10537 ft | 258 kts | 108° |
| 2026-05-05 17:01 | 20.59289 | -103.57304 | 10160 ft | 254 kts | 108° |
| 2026-05-05 17:01 | 20.58773 | -103.55503 | 9780 ft | 250 kts | 109° |
| 2026-05-05 17:01 | 20.58226 | -103.53777 | 9408 ft | 247 kts | 109° |
| 2026-05-05 17:01 | 20.57665 | -103.52055 | 9048 ft | 243 kts | 109° |
| 2026-05-05 17:02 | 20.57106 | -103.50364 | 8990 ft | 238 kts | 110° |
| 2026-05-05 17:02 | 20.56565 | -103.48731 | 9018 ft | 231 kts | 110° |
| 2026-05-05 17:02 | 20.56048 | -103.47168 | 9102 ft | 217 kts | 110° |
| 2026-05-05 17:02 | 20.55553 | -103.45667 | 8983 ft | 211 kts | 110° |
| 2026-05-05 17:03 | 20.55074 | -103.44215 | 8985 ft | 200 kts | 110° |
| 2026-05-05 17:03 | 20.54621 | -103.42839 | 8995 ft | 197 kts | 110° |
| 2026-05-05 17:03 | 20.54168 | -103.41464 | 8998 ft | 196 kts | 110° |
| 2026-05-05 17:03 | 20.53714 | -103.40081 | 8999 ft | 196 kts | 110° |
| 2026-05-05 17:04 | 20.53265 | -103.38717 | 8999 ft | 195 kts | 110° |
| 2026-05-05 17:04 | 20.52814 | -103.37343 | 8999 ft | 195 kts | 109° |
| 2026-05-05 17:04 | 20.52364 | -103.35976 | 8999 ft | 195 kts | 109° |
| 2026-05-05 17:04 | 20.51916 | -103.34611 | 8999 ft | 195 kts | 110° |
| 2026-05-05 17:05 | 20.51470 | -103.33252 | 8999 ft | 194 kts | 110° |
| 2026-05-05 17:05 | 20.51027 | -103.31902 | 8999 ft | 194 kts | 110° |
| 2026-05-05 17:05 | 20.50579 | -103.30537 | 8999 ft | 194 kts | 110° |
| 2026-05-05 17:05 | 20.50127 | -103.29157 | 9007 ft | 199 kts | 110° |
| 2026-05-05 17:06 | 20.49656 | -103.27764 | 9005 ft | 204 kts | 114° |
| 2026-05-05 17:06 | 20.48861 | -103.26491 | 9010 ft | 207 kts | 130° |
| 2026-05-05 17:06 | 20.47923 | -103.25324 | 9006 ft | 212 kts | 131° |
| 2026-05-05 17:06 | 20.46952 | -103.24101 | 9011 ft | 215 kts | 130° |
| 2026-05-05 17:07 | 20.45986 | -103.22877 | 9008 ft | 219 kts | 130° |
| 2026-05-05 17:07 | 20.44999 | -103.21624 | 9003 ft | 221 kts | 130° |
| 2026-05-05 17:07 | 20.44017 | -103.20373 | 8998 ft | 221 kts | 130° |
| 2026-05-05 17:07 | 20.43027 | -103.19112 | 8994 ft | 220 kts | 130° |
| 2026-05-05 17:08 | 20.42056 | -103.17873 | 8992 ft | 219 kts | 130° |
| 2026-05-05 17:08 | 20.41078 | -103.16621 | 8992 ft | 218 kts | 130° |
| 2026-05-05 17:08 | 20.40111 | -103.15384 | 8991 ft | 217 kts | 130° |
| 2026-05-05 17:08 | 20.39139 | -103.14146 | 8990 ft | 217 kts | 130° |
| 2026-05-05 17:09 | 20.38162 | -103.12919 | 8989 ft | 216 kts | 131° |
| 2026-05-05 17:09 | 20.37200 | -103.11708 | 8987 ft | 214 kts | 130° |
| 2026-05-05 17:09 | 20.36624 | -103.10265 | 8963 ft | 214 kts | 93° |
| 2026-05-05 17:09 | 20.37098 | -103.08831 | 8985 ft | 211 kts | 48° |
| 2026-05-05 17:10 | 20.38314 | -103.08006 | 9013 ft | 208 kts | 24° |
| 2026-05-05 17:10 | 20.39650 | -103.07415 | 8995 ft | 209 kts | 18° |
| 2026-05-05 17:10 | 20.41084 | -103.07416 | 8997 ft | 207 kts | 341° |
| 2026-05-05 17:10 | 20.42236 | -103.08290 | 8992 ft | 205 kts | 306° |
| 2026-05-05 17:11 | 20.42932 | -103.09586 | 8824 ft | 201 kts | 296° |
| 2026-05-05 17:11 | 20.43552 | -103.10923 | 8567 ft | 200 kts | 295° |
| 2026-05-05 17:11 | 20.44159 | -103.12251 | 8307 ft | 197 kts | 295° |
| 2026-05-05 17:11 | 20.44742 | -103.13557 | 8053 ft | 194 kts | 294° |
| 2026-05-05 17:12 | 20.45299 | -103.14827 | 7903 ft | 184 kts | 294° |
| 2026-05-05 17:12 | 20.45826 | -103.16046 | 7709 ft | 180 kts | 294° |
| 2026-05-05 17:12 | 20.46338 | -103.17242 | 7470 ft | 178 kts | 293° |
| 2026-05-05 17:12 | 20.46843 | -103.18427 | 7225 ft | 173 kts | 293° |
| 2026-05-05 17:13 | 20.47335 | -103.19590 | 6956 ft | 167 kts | 294° |
| 2026-05-05 17:13 | 20.47798 | -103.20686 | 6701 ft | 159 kts | 294° |
| 2026-05-05 17:13 | 20.48244 | -103.21742 | 6491 ft | 153 kts | 294° |
| 2026-05-05 17:13 | 20.48669 | -103.22749 | 6300 ft | 148 kts | 291° |
| 2026-05-05 17:14 | 20.49090 | -103.23750 | 6107 ft | 145 kts | 292° |
| 2026-05-05 17:14 | 20.49493 | -103.24711 | 5921 ft | 140 kts | 294° |
| 2026-05-05 17:14 | 20.49886 | -103.25648 | 5743 ft | 137 kts | 295° |
| 2026-05-05 17:14 | 20.50267 | -103.26575 | 5588 ft | 135 kts | 294° |
| 2026-05-05 17:15 | 20.50650 | -103.27509 | 5410 ft | 137 kts | 296° |
| 2026-05-05 17:15 | 20.51046 | -103.28420 | 5228 ft | 138 kts | 295° |
| 2026-05-05 17:15 | 20.51435 | -103.29345 | 5049 ft | 133 kts | 295° |
| 2026-05-05 17:15 | 20.51782 | -103.30166 | 5021 ft | 108 kts | 294° |
| 2026-05-05 17:16 | 20.52026 | -103.30752 | 5020 ft | 58 kts | 295° |
| 2026-05-05 17:16 | 20.52125 | -103.30981 | 5020 ft | 21 kts | 294° |
| 2026-05-05 17:16 | 20.52161 | -103.31063 | 5020 ft | 5 kts | 294° |
| 2026-05-05 17:16 | 20.52194 | -103.31094 | 5020 ft | 8 kts | 2° |
| 2026-05-05 17:17 | 20.52246 | -103.31067 | 5020 ft | 6 kts | 30° |
| 2026-05-05 17:17 | 20.52278 | -103.31048 | 5020 ft | 5 kts | 30° |
| 2026-05-05 17:17 | 20.52320 | -103.31021 | 5020 ft | 8 kts | 31° |
| 2026-05-05 17:17 | 20.52381 | -103.30983 | 5020 ft | 11 kts | 30° |
| 2026-05-05 17:18 | 20.52400 | -103.30928 | 5020 ft | 8 kts | 113° |
| 2026-05-05 17:18 | 20.52377 | -103.30864 | 5020 ft | 9 kts | 109° |
| 2026-05-05 17:18 | 20.52353 | -103.30794 | 5020 ft | 8 kts | 109° |
| 2026-05-05 17:18 | 20.52340 | -103.30750 | 5020 ft | 5 kts | 108° |
| 2026-05-05 17:19 | 20.52326 | -103.30708 | 5020 ft | 6 kts | 110° |
| 2026-05-05 17:19 | 20.52309 | -103.30656 | 5020 ft | 7 kts | 109° |
| 2026-05-05 17:19 | 20.52288 | -103.30589 | 5020 ft | 11 kts | 108° |
| 2026-05-05 17:19 | 20.52257 | -103.30494 | 5020 ft | 14 kts | 109° |
| 2026-05-05 17:20 | 20.52232 | -103.30415 | 5020 ft | 8 kts | 109° |
| 2026-05-05 17:20 | 20.52216 | -103.30366 | 5020 ft | 8 kts | 109° |
| 2026-05-05 17:20 | 20.52193 | -103.30299 | 5020 ft | 11 kts | 109° |
| 2026-05-05 17:20 | 20.52165 | -103.30207 | 5020 ft | 14 kts | 110° |
| 2026-05-05 17:21 | 20.52137 | -103.30125 | 5020 ft | 2 kts | 109° |
| 2026-05-05 17:21 | 20.52136 | -103.30093 | 5020 ft | 6 kts | 65° |
| 2026-05-05 17:21 | 20.52188 | -103.30069 | 5020 ft | 9 kts | 19° |
| 2026-05-05 17:22 | 20.52276 | -103.30035 | 5020 ft | 4 kts | 19° |
| 2026-05-05 17:22 | 20.52317 | -103.30019 | 5020 ft | 7 kts | 25° |
| 2026-05-05 17:22 | 20.52327 | -103.29971 | 5020 ft | 6 kts | 109° |
| 2026-05-05 17:22 | 20.52307 | -103.29957 | 5020 ft | 3 kts | 215° |
| 2026-05-05 17:23 | 20.52285 | -103.29967 | 5020 ft | 4 kts | 199° |
| 2026-05-05 17:23 | 20.52269 | -103.29974 | 5020 ft | 0 kts | 199° |
| 2026-05-05 17:23 | 20.52264 | -103.29975 | 5020 ft | 0 kts | 199° |